Time;durP1;ratioP1;P1;durP2;ratioP2;P2;SDS_P1;SDS_P2;PMS_P1;PMS_P2;Temp;Humidity;BMP_temperature;BMP_pressure;BME280_temperature;BME280_humidity;BME280_pressure;Samples;Min_cycle;Max_cycle;Signal;HPM_P1;HPM_P2
2022/12/21 00:01:20;;;;;;;;;;;;;;;-0.72;65.51;96197.78;5114467;28;1074;-59
2022/12/21 00:03:46;;;;;;;;;;;;;;;-0.86;65.85;96200.97;5114727;28;962;-59
2022/12/21 00:06:12;;;;;;;;;;;;;;;-0.91;66.52;96207.34;5114309;28;1973;-59
2022/12/21 00:08:41;;;;;;;;;;;;;;;-0.87;66.79;96194.03;5113245;28;1488;-59
2022/12/21 00:11:08;;;;;;;;;;;;;;;-0.75;66.71;96199.69;5114301;28;1063;-59
2022/12/21 00:13:34;;;;;;;;;;;;;;;-0.78;66.20;96203.28;5114356;28;952;-59
2022/12/21 00:16:10;;;;;;;;;;;;;;;-0.85;66.16;96197.44;5114387;28;1000;-59
2022/12/21 00:18:37;;;;;;;;;;;;;;;-0.86;66.30;96208.00;5114469;28;961;-59
2022/12/21 00:21:05;;;;;;;;;;;;;;;-0.87;66.17;96203.69;5114292;28;1003;-59
2022/12/21 00:23:31;;;;;;;;;;;;;;;-0.88;66.73;96204.59;5114282;28;1003;-59
2022/12/21 00:25:58;;;;;;;;;;;;;;;-0.89;66.23;96203.75;5113871;28;1971;-59
2022/12/21 00:28:25;;;;;;;;;;;;;;;-0.89;66.14;96202.88;5112965;28;1031;-60
2022/12/21 00:30:51;;;;;;;;;;;;;;;-0.94;66.31;96204.88;5114202;28;1034;-60
2022/12/21 00:33:17;;;;;;;;;;;;;;;-0.98;66.37;96198.91;5114065;28;1039;-59
2022/12/21 00:35:47;;;;;;;;;;;;;;;-0.96;67.20;96201.47;5114148;28;1018;-60
2022/12/21 00:38:14;;;;;;;;;;;;;;;-0.79;67.00;96204.22;5113988;28;1003;-60
2022/12/21 00:40:40;;;;;;;;;;;;;;;-0.81;66.37;96192.94;5113899;28;995;-59
2022/12/21 00:43:06;;;;;;;;;;;;;;;-0.99;66.37;96189.31;5114149;28;952;-60
2022/12/21 00:45:32;;;;;;;;;;;;;;;-1.06;66.56;96188.72;5112648;28;1984;-60
2022/12/21 00:47:58;;;;;;;;;;;;;;;-1.11;66.33;96184.59;5113929;28;1606;-60
2022/12/21 00:50:24;;;;;;;;;;;;;;;-1.14;66.56;96187.31;5113928;28;975;-60
2022/12/21 00:52:50;;;;;;;;;;;;;;;-1.14;66.86;96176.84;5113869;28;1090;-60
2022/12/21 00:55:16;;;;;;;;;;;;;;;-1.09;67.27;96174.88;5112515;28;1279;-61
2022/12/21 00:57:42;;;;;;;;;;;;;;;-0.95;67.65;96177.75;5112869;28;1043;-60
2022/12/21 01:00:09;;;;;;;;;;;;;;;-0.82;67.27;96175.44;5113898;28;984;-60
2022/12/21 01:02:35;;;;;;;;;;;;;;;-0.76;66.68;96169.91;5113780;28;1044;-60
2022/12/21 01:05:02;;;;;;;;;;;;;;;-0.81;65.97;96169.28;5113468;28;2007;-60
2022/12/21 01:07:28;;;;;;;;;;;;;;;-0.91;65.63;96165.34;5113717;28;1048;-60
2022/12/21 01:09:54;;;;;;;;;;;;;;;-1.09;65.92;96173.09;5112372;28;1015;-60
2022/12/21 01:12:20;;;;;;;;;;;;;;;-1.17;66.95;96167.31;5112721;28;955;-60
2022/12/21 01:14:46;;;;;;;;;;;;;;;-1.14;66.87;96166.34;5112602;28;949;-60
2022/12/21 01:17:12;;;;;;;;;;;;;;;-1.01;66.77;96173.59;5113715;28;1003;-60
2022/12/21 01:19:39;;;;;;;;;;;;;;;-0.92;66.76;96171.53;5112510;28;1217;-60
2022/12/21 01:22:05;;;;;;;;;;;;;;;-0.84;66.99;96167.63;5113434;28;1031;-60
2022/12/21 01:24:31;;;;;;;;;;;;;;;-0.74;65.92;96167.22;5113475;28;963;-60
2022/12/21 01:26:57;;;;;;;;;;;;;;;-0.83;65.78;96163.25;5112410;28;1905;-60
2022/12/21 01:29:23;;;;;;;;;;;;;;;-1.06;65.60;96165.09;5112518;28;991;-60
2022/12/21 01:31:49;;;;;;;;;;;;;;;-1.16;65.61;96163.75;5113430;28;1059;-60
2022/12/21 01:34:15;;;;;;;;;;;;;;;-1.22;65.79;96162.25;5112259;28;1091;-60
2022/12/21 01:36:41;;;;;;;;;;;;;;;-1.29;66.41;96160.84;5113472;28;976;-60
2022/12/21 01:39:07;;;;;;;;;;;;;;;-1.33;66.89;96146.09;5146330;27;1020;-60
2022/12/21 01:41:33;;;;;;;;;;;;;;;-1.15;66.81;96144.50;5113599;28;1023;-60
2022/12/21 01:44:00;;;;;;;;;;;;;;;-1.08;66.86;96139.81;5113195;28;1036;-60
2022/12/21 01:46:30;;;;;;;;;;;;;;;-0.98;66.54;96131.47;5113273;28;1905;-60
2022/12/21 01:49:04;;;;;;;;;;;;;;;-0.90;65.95;96133.78;5112078;28;1543;-61
2022/12/21 01:51:32;;;;;;;;;;;;;;;-0.94;65.93;96126.09;5113324;28;1008;-60
2022/12/21 01:54:01;;;;;;;;;;;;;;;-1.08;65.87;96119.69;5115448;28;1058;-61
2022/12/21 01:56:31;;;;;;;;;;;;;;;-1.19;66.29;96114.06;5116789;28;1358;-60
2022/12/21 01:59:01;;;;;;;;;;;;;;;-1.16;65.93;96118.31;5116803;28;1268;-61
2022/12/21 02:01:30;;;;;;;;;;;;;;;-1.18;65.85;96110.50;5117100;28;1006;-60
2022/12/21 02:03:57;;;;;;;;;;;;;;;-1.27;66.41;96114.38;5116789;28;1054;-60
2022/12/21 02:06:29;;;;;;;;;;;;;;;-1.24;66.26;96110.75;5116693;28;1914;-61
2022/12/21 02:08:57;;;;;;;;;;;;;;;-1.21;66.22;96118.50;5116625;28;1031;-61
2022/12/21 02:11:23;;;;;;;;;;;;;;;-1.28;65.90;96109.19;5116870;28;956;-61
2022/12/21 02:13:49;;;;;;;;;;;;;;;-1.27;65.63;96103.88;5115487;28;1032;-61
2022/12/21 02:16:25;;;;;;;;;;;;;;;-1.29;66.91;96104.84;5116577;28;1066;-61
2022/12/21 02:19:10;;;;;;;;;;;;;;;-1.20;65.86;96104.47;5115238;28;893;-61
2022/12/21 02:21:44;;;;;;;;;;;;;;;-1.30;65.22;96098.75;5116588;28;1047;-61
2022/12/21 02:24:30;;;;;;;;;;;;;;;-1.44;65.93;96104.59;5116553;27;964;-61
2022/12/21 02:26:56;;;;;;;;;;;;;;;-1.49;66.57;96092.59;5074831;28;1918;-61
2022/12/21 02:29:41;;;;;;;;;;;;;;;-1.46;67.06;96093.31;5116292;28;1130;-61
2022/12/21 02:32:18;;;;;;;;;;;;;;;-1.36;66.13;96098.19;5116396;28;1043;-61
2022/12/21 02:34:50;;;;;;;;;;;;;;;-1.32;65.63;96107.63;5116390;28;983;-61
2022/12/21 02:37:20;;;;;;;;;;;;;;;-1.48;65.91;96100.41;5116255;28;1349;-61
2022/12/21 02:39:59;;;;;;;;;;;;;;;-1.63;66.40;96099.28;5116111;28;1045;-61
2022/12/21 02:45:20;;;;;;;;;;;;;;;-1.60;66.57;96098.28;5116073;28;1902;-61
2022/12/21 02:47:50;;;;;;;;;;;;;;;-1.59;66.43;96105.25;5116034;28;1569;-61
2022/12/21 02:50:23;;;;;;;;;;;;;;;-1.64;66.75;96099.34;5115938;28;1074;-60
2022/12/21 02:52:55;;;;;;;;;;;;;;;-1.57;66.83;96106.03;5114694;28;1047;-61
2022/12/21 02:55:21;;;;;;;;;;;;;;;-1.48;67.06;96102.16;5115921;28;996;-61
2022/12/21 02:57:47;;;;;;;;;;;;;;;-1.35;66.54;96105.13;5148896;27;1281;-60
2022/12/21 03:00:20;;;;;;;;;;;;;;;-1.43;66.72;96108.91;5115755;28;949;-61
2022/12/21 03:05:49;;;;;;;;;;;;;;;-1.32;66.98;96097.97;5114686;28;1977;-61
2022/12/21 03:08:32;;;;;;;;;;;;;;;-1.23;66.72;96101.97;5115604;28;995;-60
2022/12/21 03:11:02;;;;;;;;;;;;;;;-1.21;66.26;96097.53;5115539;28;976;-61
2022/12/21 03:13:41;;;;;;;;;;;;;;;-1.25;66.04;96107.28;5115437;28;1153;-61
2022/12/21 03:16:21;;;;;;;;;;;;;;;-1.38;66.22;96099.09;5115565;28;1039;-61
2022/12/21 03:18:50;;;;;;;;;;;;;;;-1.42;65.99;96108.00;5114246;28;935;-61
2022/12/21 03:21:21;;;;;;;;;;;;;;;-1.45;65.64;96095.00;5115357;28;1090;-61
2022/12/21 03:24:07;;;;;;;;;;;;;;;-1.43;66.02;96100.19;5115352;28;963;-61
2022/12/21 03:26:45;;;;;;;;;;;;;;;-1.42;65.70;96109.78;5114998;28;1898;-61
2022/12/21 03:29:14;;;;;;;;;;;;;;;-1.48;66.90;96100.41;5114067;28;1000;-61
2022/12/21 03:31:42;;;;;;;;;;;;;;;-1.41;66.96;96109.69;5115183;28;972;-61
2022/12/21 03:34:14;;;;;;;;;;;;;;;-1.40;65.79;96108.78;5114884;28;1024;-61
2022/12/21 03:36:44;;;;;;;;;;;;;;;-1.70;65.92;96095.19;5115232;28;1128;-61
2022/12/21 03:39:12;;;;;;;;;;;;;;;-1.81;67.00;96093.00;5115033;28;961;-61
2022/12/21 03:41:51;;;;;;;;;;;;;;;-1.67;66.90;96096.81;5114887;28;1035;-61
2022/12/21 03:44:20;;;;;;;;;;;;;;;-1.70;66.77;96096.97;5114916;28;1028;-61
2022/12/21 03:46:51;;;;;;;;;;;;;;;-1.57;67.60;96090.31;5114699;28;1984;-61
2022/12/21 03:49:28;;;;;;;;;;;;;;;-1.49;68.03;96077.69;5114992;28;1588;-61
2022/12/21 03:51:57;;;;;;;;;;;;;;;-1.33;67.80;96083.13;5114850;28;959;-61
2022/12/21 03:54:23;;;;;;;;;;;;;;;-1.23;67.34;96083.63;5114826;28;979;-61
2022/12/21 03:56:49;;;;;;;;;;;;;;;-1.21;66.76;96077.38;5114538;28;1206;-61
2022/12/21 03:59:16;;;;;;;;;;;;;;;-1.24;66.42;96079.28;5113254;28;976;-61
2022/12/21 04:01:50;;;;;;;;;;;;;;;-1.29;66.08;96083.84;5113544;28;996;-61
2022/12/21 04:04:35;;;;;;;;;;;;;;;-1.32;66.84;96076.97;5114670;28;951;-61
2022/12/21 04:07:04;;;;;;;;;;;;;;;-1.32;66.66;96079.59;5114338;28;1904;-61
2022/12/21 04:09:30;;;;;;;;;;;;;;;-1.29;65.99;96070.75;5114374;28;1003;-61
2022/12/21 04:14:40;;;;;;;;;;;;;;;-1.57;66.09;96079.81;5114328;27;1051;-61
2022/12/21 04:17:06;;;;;;;;;;;;;;;-1.63;66.18;96077.41;5113993;28;1048;-61
2022/12/21 04:30:33;;;;;;;;;;;;;;;-1.43;65.87;96066.94;5114049;28;1008;-61
2022/12/21 04:32:59;;;;;;;;;;;;;;;-1.46;66.17;96061.84;5113931;28;1094;-61
2022/12/21 04:35:25;;;;;;;;;;;;;;;-1.52;66.17;96058.63;5114220;28;1054;-61
2022/12/21 04:37:51;;;;;;;;;;;;;;;-1.54;66.94;96057.84;5114149;28;1043;-60
2022/12/21 04:40:17;;;;;;;;;;;;;;;-1.43;66.57;96066.94;5114081;28;963;-61
2022/12/21 04:42:43;;;;;;;;;;;;;;;-1.44;66.22;96053.88;5112782;28;1035;-61
2022/12/21 04:45:09;;;;;;;;;;;;;;;-1.46;65.69;96058.34;5113738;28;1913;-61
2022/12/21 04:47:35;;;;;;;;;;;;;;;-1.55;65.87;96054.38;5114137;28;1543;-60
2022/12/21 04:50:02;;;;;;;;;;;;;;;-1.55;67.18;96045.66;5113822;28;1036;-61
2022/12/21 04:52:29;;;;;;;;;;;;;;;-1.50;66.23;96041.03;5113919;28;1055;-58
2022/12/21 04:54:56;;;;;;;;;;;;;;;-1.59;65.81;96052.78;5113844;28;1028;-63
2022/12/21 04:57:22;;;;;;;;;;;;;;;-1.71;65.78;96037.56;5113605;28;1198;-61
2022/12/21 04:59:48;;;;;;;;;;;;;;;-1.78;66.13;96040.44;5113819;28;1015;-60
2022/12/21 05:02:14;;;;;;;;;;;;;;;-1.77;65.80;96036.06;5113722;28;1028;-60
2022/12/21 05:04:40;;;;;;;;;;;;;;;-1.74;65.83;96040.34;5113835;28;1032;-60
2022/12/21 05:07:06;;;;;;;;;;;;;;;-1.77;66.12;96036.91;5113671;28;1979;-61
2022/12/21 05:09:32;;;;;;;;;;;;;;;-1.78;66.62;96035.22;5112636;28;1050;-61
2022/12/21 05:11:59;;;;;;;;;;;;;;;-1.70;66.44;96037.50;5113761;28;1055;-61
2022/12/21 05:14:25;;;;;;;;;;;;;;;-1.60;66.45;96032.72;5113526;28;1036;-61
2022/12/21 05:16:52;;;;;;;;;;;;;;;-1.60;66.14;96038.81;5113594;28;1103;-61
2022/12/21 05:19:18;;;;;;;;;;;;;;;-1.54;65.79;96034.22;5113813;28;1072;-61
2022/12/21 05:21:45;;;;;;;;;;;;;;;-1.63;65.60;96035.47;5113744;28;1070;-61
2022/12/21 05:24:11;;;;;;;;;;;;;;;-1.71;65.47;96027.06;5113598;28;996;-61
2022/12/21 05:26:37;;;;;;;;;;;;;;;-1.76;65.58;96029.91;5113441;28;1909;-61
2022/12/21 05:29:03;;;;;;;;;;;;;;;-1.74;65.74;96014.97;5116174;28;999;-61
2022/12/21 05:31:30;;;;;;;;;;;;;;;-1.73;65.64;96027.13;5117634;28;991;-61
2022/12/21 05:33:56;;;;;;;;;;;;;;;-1.69;65.88;96030.47;5117411;28;1040;-61
2022/12/21 05:36:22;;;;;;;;;;;;;;;-1.63;65.86;96023.22;5116261;28;945;-61
2022/12/21 05:38:48;;;;;;;;;;;;;;;-1.61;65.31;96028.41;5117503;28;987;-63
2022/12/21 05:41:17;;;;;;;;;;;;;;;-1.71;65.35;96029.69;5116195;28;1074;-61
2022/12/21 05:43:43;;;;;;;;;;;;;;;-1.74;65.43;96027.22;5117192;28;1011;-61
2022/12/21 05:46:11;;;;;;;;;;;;;;;-1.75;65.54;96028.97;5117380;28;1986;-60
2022/12/21 05:48:37;;;;;;;;;;;;;;;-1.74;65.68;96024.59;5099222;28;1630;-60
2022/12/21 05:51:07;;;;;;;;;;;;;;;-1.72;66.42;96020.16;5117274;28;1231;-60
2022/12/21 05:53:33;;;;;;;;;;;;;;;-1.61;66.05;96018.75;5117069;28;1020;-60
2022/12/21 05:55:59;;;;;;;;;;;;;;;-1.58;64.95;96018.59;5115752;28;1151;-60
2022/12/21 05:58:26;;;;;;;;;;;;;;;-1.68;64.96;96019.94;5115758;28;1217;-60
2022/12/21 06:00:52;;;;;;;;;;;;;;;-1.78;65.50;96014.22;5116907;28;1554;-60
2022/12/21 06:03:18;;;;;;;;;;;;;;;-1.75;65.63;96013.25;5117151;28;1066;-62
2022/12/21 06:05:44;;;;;;;;;;;;;;;-1.69;65.28;96014.75;5116709;28;1905;-60
2022/12/21 06:08:10;;;;;;;;;;;;;;;-1.61;65.06;96012.66;5116874;28;945;-60
2022/12/21 06:10:37;;;;;;;;;;;;;;;-1.49;65.25;96019.16;5116914;28;963;-59
2022/12/21 06:13:03;;;;;;;;;;;;;;;-1.38;64.98;96016.91;5116664;28;1036;-61
2022/12/21 06:15:29;;;;;;;;;;;;;;;-1.33;64.50;96027.19;5116547;27;1071;-60
2022/12/21 06:17:56;;;;;;;;;;;;;;;-1.36;64.44;96020.31;5116597;28;1031;-60
2022/12/21 06:20:22;;;;;;;;;;;;;;;-1.41;64.85;96023.13;5115222;28;1068;-60
2022/12/21 06:22:48;;;;;;;;;;;;;;;-1.43;64.62;96029.38;5115306;28;1114;-60
2022/12/21 06:25:14;;;;;;;;;;;;;;;-1.47;64.36;96031.28;5116448;28;1910;-60
2022/12/21 06:27:40;;;;;;;;;;;;;;;-1.52;64.78;96030.59;5116330;28;944;-60
2022/12/21 06:30:07;;;;;;;;;;;;;;;-1.49;65.21;96027.88;5116651;28;983;-61
2022/12/21 06:32:33;;;;;;;;;;;;;;;-1.27;65.75;96029.53;5115959;28;1032;-58
2022/12/21 06:34:59;;;;;;;;;;;;;;;-0.94;64.04;96037.69;5116231;28;959;-59
2022/12/21 06:37:25;;;;;;;;;;;;;;;0.73;59.87;96041.03;5115344;28;980;-60
2022/12/21 06:39:51;;;;;;;;;;;;;;;4.55;50.17;96055.50;5115518;28;996;-60
2022/12/21 06:42:17;;;;;;;;;;;;;;;7.07;43.54;96064.09;5115681;28;1027;-61
2022/12/21 06:44:43;;;;;;;;;;;;;;;8.58;41.26;96071.69;5115038;28;1031;-61
2022/12/21 06:47:09;;;;;;;;;;;;;;;10.30;37.73;96077.53;5114499;28;1977;-61
2022/12/21 06:49:35;;;;;;;;;;;;;;;9.17;38.44;96086.34;5115754;28;1362;-61
2022/12/21 06:52:01;;;;;;;;;;;;;;;8.05;40.51;96073.38;5114662;28;1066;-60
2022/12/21 06:54:27;;;;;;;;;;;;;;;7.07;42.11;96053.47;5115727;28;1059;-60
2022/12/21 06:56:54;;;;;;;;;;;;;;;6.57;43.65;96047.53;5114388;28;1219;-60
2022/12/21 06:59:20;;;;;;;;;;;;;;;6.57;43.75;96044.88;5115638;28;1265;-60
2022/12/21 07:01:46;;;;;;;;;;;;;;;6.44;44.31;96043.13;5115875;28;1042;-60
2022/12/21 07:04:12;;;;;;;;;;;;;;;7.47;42.47;96049.53;5115763;28;1107;-59
2022/12/21 07:06:39;;;;;;;;;;;;;;;9.94;38.91;96053.06;5115452;28;1905;-60
2022/12/21 07:09:05;;;;;;;;;;;;;;;11.79;35.87;96065.63;5115610;28;1000;-60
2022/12/21 07:11:31;;;;;;;;;;;;;;;11.45;35.57;96068.81;5115372;28;1022;-60
2022/12/21 07:13:57;;;;;;;;;;;;;;;10.23;37.62;96062.16;5115439;28;1012;-59
2022/12/21 07:16:23;;;;;;;;;;;;;;;9.17;38.88;96064.16;5115526;28;1212;-59
2022/12/21 07:18:49;;;;;;;;;;;;;;;6.98;43.51;96046.19;5115486;28;953;-59
2022/12/21 07:21:17;;;;;;;;;;;;;;;5.43;46.41;96031.84;5115211;28;1067;-63
2022/12/21 07:23:43;;;;;;;;;;;;;;;3.99;49.73;96023.88;5115340;28;991;-60
2022/12/21 07:26:14;;;;;;;;;;;;;;;3.19;52.57;96000.69;5115239;28;1994;-59
2022/12/21 07:28:43;;;;;;;;;;;;;;;2.67;54.64;95991.50;5115341;28;982;-60
2022/12/21 07:31:10;;;;;;;;;;;;;;;2.29;55.75;95992.00;5111673;28;1622;-60
2022/12/21 07:33:37;;;;;;;;;;;;;;;1.91;57.34;95973.97;5114991;28;1015;-60
2022/12/21 07:36:05;;;;;;;;;;;;;;;1.84;57.66;95982.31;5115116;28;952;-60
2022/12/21 07:38:33;;;;;;;;;;;;;;;1.84;58.30;95982.31;5114874;28;1024;-60
2022/12/21 07:41:00;;;;;;;;;;;;;;;1.58;59.76;95984.66;5113486;28;1235;-59
2022/12/21 07:43:26;;;;;;;;;;;;;;;1.21;60.84;95989.31;5115007;28;1036;-59
2022/12/21 07:45:52;;;;;;;;;;;;;;;0.94;61.91;95984.59;5113752;28;1989;-59
2022/12/21 07:48:19;;;;;;;;;;;;;;;0.97;62.67;95994.97;5114744;28;1955;-59
2022/12/21 07:50:46;;;;;;;;;;;;;;;1.28;61.40;95989.84;5113954;28;1097;-59
2022/12/21 07:53:12;;;;;;;;;;;;;;;1.74;60.69;95998.66;5114724;28;1003;-59
2022/12/21 07:55:38;;;;;;;;;;;;;;;2.00;59.22;96001.59;5113204;28;1179;-60
2022/12/21 07:58:04;;;;;;;;;;;;;;;2.34;58.74;96004.94;5114662;28;1090;-60
2022/12/21 08:00:30;;;;;;;;;;;;;;;2.88;57.85;96002.59;5114482;28;1296;-60
2022/12/21 08:02:56;;;;;;;;;;;;;;;3.48;55.95;96003.31;5114400;28;1415;-60
2022/12/21 08:05:22;;;;;;;;;;;;;;;3.75;54.80;96008.63;5114266;28;1913;-60
2022/12/21 08:07:49;;;;;;;;;;;;;;;4.02;54.42;96007.78;5113722;28;1367;-60
2022/12/21 08:10:15;;;;;;;;;;;;;;;3.81;54.88;96002.09;5112997;28;1153;-60
2022/12/21 08:12:41;;;;;;;;;;;;;;;3.80;54.82;96005.69;5114489;28;999;-60
2022/12/21 08:15:08;;;;;;;;;;;;;;;3.98;54.62;95996.53;5113081;28;1102;-60
2022/12/21 08:17:34;;;;;;;;;;;;;;;3.98;55.01;95996.53;5113047;28;1006;-60
2022/12/21 08:20:00;;;;;;;;;;;;;;;3.91;55.10;95998.75;5113884;28;1851;-59
2022/12/21 08:22:26;;;;;;;;;;;;;;;3.54;56.36;95994.97;5112934;28;1023;-60
2022/12/21 08:24:52;;;;;;;;;;;;;;;3.20;57.46;95994.44;5114141;28;1039;-60
2022/12/21 08:27:18;;;;;;;;;;;;;;;2.90;58.83;95991.91;5114000;28;1917;-60
2022/12/21 08:29:44;;;;;;;;;;;;;;;2.85;58.81;95986.91;5113736;28;1244;-60
2022/12/21 08:32:10;;;;;;;;;;;;;;;2.82;59.35;95984.44;5114188;28;960;-60
2022/12/21 08:34:36;;;;;;;;;;;;;;;2.67;60.47;95986.22;5114050;28;1045;-60
2022/12/21 08:37:02;;;;;;;;;;;;;;;2.70;60.58;95990.50;5114128;28;1034;-60
2022/12/21 08:39:28;;;;;;;;;;;;;;;2.73;60.31;95980.59;5112327;28;1196;-60
2022/12/21 08:41:54;;;;;;;;;;;;;;;2.76;60.17;95984.81;5112924;28;976;-60
2022/12/21 08:44:20;;;;;;;;;;;;;;;2.75;60.38;95972.56;5114138;28;987;-62
2022/12/21 08:46:46;;;;;;;;;;;;;;;2.70;60.64;95966.72;5113827;28;1902;-60
2022/12/21 08:49:12;;;;;;;;;;;;;;;2.77;61.31;95969.81;5113702;28;1235;-60
2022/12/21 08:51:39;;;;;;;;;;;;;;;2.96;60.82;95956.34;5112679;28;1045;-60
2022/12/21 08:54:05;;;;;;;;;;;;;;;3.00;61.02;95955.19;5113810;28;1216;-60
2022/12/21 08:56:31;;;;;;;;;;;;;;;3.02;61.48;95951.53;5113616;28;1112;-60
2022/12/21 08:59:02;;;;;;;;;;;;;;;2.96;61.61;95951.91;5113778;28;1030;-60
2022/12/21 09:01:28;;;;;;;;;;;;;;;3.16;61.81;95953.31;5113878;28;1031;-60
2022/12/21 09:03:55;;;;;;;;;;;;;;;3.25;61.37;95936.88;5116271;28;1067;-60
2022/12/21 09:06:21;;;;;;;;;;;;;;;3.42;60.52;95937.59;5116635;28;1991;-60
2022/12/21 09:08:47;;;;;;;;;;;;;;;3.64;60.74;95937.91;5116523;28;1095;-60
2022/12/21 09:11:14;;;;;;;;;;;;;;;3.93;60.13;95932.50;5118190;28;1289;-60
2022/12/21 09:13:40;;;;;;;;;;;;;;;4.14;59.74;95918.81;5116575;28;1042;-60
2022/12/21 09:16:14;;;;;;;;;;;;;;;4.41;59.24;95924.88;5118073;28;1100;-60
2022/12/21 09:18:40;;;;;;;;;;;;;;;4.74;58.24;95904.09;5117555;28;1040;-60
2022/12/21 09:21:06;;;;;;;;;;;;;;;5.53;55.97;95910.84;5116582;28;968;-60
2022/12/21 09:23:32;;;;;;;;;;;;;;;7.22;51.79;95908.66;5117850;27;951;-60
2022/12/21 09:25:59;;;;;;;;;;;;;;;11.58;42.52;95920.38;5117852;28;1991;-60
2022/12/21 09:28:25;;;;;;;;;;;;;;;15.59;34.92;95945.72;5117445;28;1215;-60
2022/12/21 09:30:51;;;;;;;;;;;;;;;17.33;32.21;95957.22;5117641;28;971;-61
2022/12/21 09:33:17;;;;;;;;;;;;;;;18.51;30.65;95950.09;5117523;28;971;-61
2022/12/21 09:35:43;;;;;;;;;;;;;;;19.93;28.82;95951.97;5117369;28;985;-61
2022/12/21 09:38:09;;;;;;;;;;;;;;;21.03;27.05;95968.28;5117407;28;1019;-61
2022/12/21 09:40:35;;;;;;;;;;;;;;;19.73;27.87;95953.72;5117195;28;1008;-60
2022/12/21 09:43:07;;;;;;;;;;;;;;;16.48;31.83;95950.91;5117268;28;1036;-60
2022/12/21 09:45:52;;;;;;;;;;;;;;;13.96;35.88;95919.56;5117275;28;1914;-60
2022/12/21 09:48:24;;;;;;;;;;;;;;;16.29;33.02;95925.22;5117107;28;1350;-60
2022/12/21 09:50:56;;;;;;;;;;;;;;;20.41;27.94;95943.00;5117167;28;1060;-60
2022/12/21 09:53:26;;;;;;;;;;;;;;;22.76;25.14;95948.13;5117021;28;1035;-61
2022/12/21 09:59:51;;;;;;;;;;;;;;;22.57;24.43;95948.00;5111577;27;1606;-61
2022/12/21 10:02:17;;;;;;;;;;;;;;;20.34;26.57;95937.56;5116664;28;1077;-61
2022/12/21 10:04:46;;;;;;;;;;;;;;;18.14;29.76;95927.59;5116774;28;1020;-61
2022/12/21 10:07:50;;;;;;;;;;;;;;;17.20;31.29;95905.66;5116993;28;1577;-60
2022/12/21 10:10:28;;;;;;;;;;;;;;;16.22;32.33;95896.41;5115554;28;1278;-61
2022/12/21 10:13:13;;;;;;;;;;;;;;;15.58;33.21;95881.22;5116811;28;969;-61
2022/12/21 10:15:58;;;;;;;;;;;;;;;15.17;33.79;95876.75;5116131;28;1071;-61
2022/12/21 10:18:31;;;;;;;;;;;;;;;14.91;34.14;95865.38;5116490;28;1056;-61
2022/12/21 10:20:57;;;;;;;;;;;;;;;15.61;33.21;95861.97;5116516;28;1035;-61
2022/12/21 10:23:29;;;;;;;;;;;;;;;18.03;30.12;95861.25;5116567;28;996;-61
2022/12/21 10:25:59;;;;;;;;;;;;;;;21.17;26.09;95879.41;5115311;28;1909;-62
2022/12/21 10:28:45;;;;;;;;;;;;;;;23.11;24.16;95887.75;5115409;28;1019;-62
2022/12/21 10:31:34;;;;;;;;;;;;;;;24.61;22.62;95883.03;5114938;28;1249;-62
2022/12/21 10:34:01;;;;;;;;;;;;;;;25.76;21.13;95892.75;5107118;28;1412;-62
2022/12/21 10:36:34;;;;;;;;;;;;;;;26.09;21.18;95891.34;5116177;28;1059;-62
2022/12/21 10:39:00;;;;;;;;;;;;;;;25.54;20.80;95883.50;5115302;28;968;-62
2022/12/21 10:41:31;;;;;;;;;;;;;;;23.59;22.86;95874.28;5115907;28;1223;-63
2022/12/21 10:43:59;;;;;;;;;;;;;;;19.45;26.73;95852.34;5116177;28;1023;-60
2022/12/21 10:46:35;;;;;;;;;;;;;;;16.19;31.35;95822.91;5116096;28;1965;-61
2022/12/21 10:49:30;;;;;;;;;;;;;;;14.90;33.69;95804.47;5114796;28;1244;-61
2022/12/21 10:51:56;;;;;;;;;;;;;;;16.17;32.30;95806.06;5097540;28;1449;-62
2022/12/21 10:54:27;;;;;;;;;;;;;;;20.31;27.61;95814.94;5114679;28;1095;-65
2022/12/21 10:56:53;;;;;;;;;;;;;;;24.08;23.25;95835.34;5115830;28;1106;-61
2022/12/21 10:59:22;;;;;;;;;;;;;;;26.69;20.27;95851.69;5114292;28;1246;-61
2022/12/21 11:01:49;;;;;;;;;;;;;;;28.57;18.46;95865.03;5115719;28;1138;-61
2022/12/21 11:04:36;;;;;;;;;;;;;;;29.43;18.50;95860.66;5115694;28;936;-61
2022/12/21 11:07:04;;;;;;;;;;;;;;;29.21;17.82;95858.81;5115494;28;1975;-61
2022/12/21 11:09:33;;;;;;;;;;;;;;;28.13;19.33;95848.53;5115648;28;960;-61
2022/12/21 11:12:12;;;;;;;;;;;;;;;26.16;20.79;95839.97;5115252;28;1222;-61
2022/12/21 11:14:38;;;;;;;;;;;;;;;24.25;21.55;95835.53;5115613;28;964;-61
2022/12/21 11:17:05;;;;;;;;;;;;;;;23.53;22.82;95820.59;5115607;28;1119;-61
2022/12/21 11:19:34;;;;;;;;;;;;;;;22.50;23.57;95810.13;5114555;28;1240;-61
2022/12/21 11:22:00;;;;;;;;;;;;;;;22.90;23.68;95807.94;5115050;28;1103;-61
2022/12/21 11:24:33;;;;;;;;;;;;;;;25.08;21.74;95821.06;5113398;28;1075;-61
2022/12/21 11:27:01;;;;;;;;;;;;;;;26.43;20.13;95820.22;5113627;28;1906;-61
2022/12/21 11:29:30;;;;;;;;;;;;;;;26.29;20.22;95816.91;5115346;28;995;-62
2022/12/21 11:32:01;;;;;;;;;;;;;;;26.07;19.92;95814.03;5115197;28;1027;-63
2022/12/21 11:34:53;;;;;;;;;;;;;;;25.80;19.93;95803.59;5115112;28;1020;-62
2022/12/21 11:37:39;;;;;;;;;;;;;;;25.61;20.17;95796.56;5111891;28;1119;-61
2022/12/21 11:40:11;;;;;;;;;;;;;;;25.18;20.50;95786.81;5113518;28;1304;-61
2022/12/21 11:42:53;;;;;;;;;;;;;;;23.89;21.57;95785.38;5114663;28;1277;-61
2022/12/21 11:45:19;;;;;;;;;;;;;;;21.84;23.95;95771.28;5114898;28;1992;-60
2022/12/21 11:47:57;;;;;;;;;;;;;;;18.59;27.02;95760.41;5114800;28;1256;-60
2022/12/21 11:50:29;;;;;;;;;;;;;;;15.19;31.66;95740.06;5114971;28;963;-60
2022/12/21 11:53:01;;;;;;;;;;;;;;;12.98;35.41;95718.59;5114936;28;1117;-60
2022/12/21 11:55:34;;;;;;;;;;;;;;;11.61;37.14;95708.47;5114617;28;1103;-60
2022/12/21 11:58:03;;;;;;;;;;;;;;;10.85;39.35;95693.63;5114351;28;1092;-60
2022/12/21 12:00:34;;;;;;;;;;;;;;;10.42;40.37;95677.25;5114890;28;1065;-60
2022/12/21 12:03:03;;;;;;;;;;;;;;;10.13;40.87;95672.81;5114648;28;1032;-60
2022/12/21 12:05:35;;;;;;;;;;;;;;;9.79;41.71;95667.16;5114508;28;1960;-59
2022/12/21 12:08:00;;;;;;;;;;;;;;;9.43;41.96;95660.72;5114290;27;1134;-60
2022/12/21 12:10:37;;;;;;;;;;;;;;;9.24;43.64;95646.41;5114334;28;1027;-60
2022/12/21 12:13:06;;;;;;;;;;;;;;;9.06;43.63;95642.75;5114444;28;983;-60
2022/12/21 12:15:51;;;;;;;;;;;;;;;8.99;43.71;95639.78;5114521;28;995;-59
2022/12/21 12:18:30;;;;;;;;;;;;;;;8.91;43.53;95634.31;5114100;28;1415;-59
2022/12/21 12:21:04;;;;;;;;;;;;;;;8.77;43.86;95623.06;5114318;28;1036;-59
2022/12/21 12:23:42;;;;;;;;;;;;;;;8.70;44.30;95618.44;5114163;28;1110;-60
2022/12/21 12:26:13;;;;;;;;;;;;;;;8.53;44.69;95619.94;5112921;28;1979;-60
2022/12/21 12:28:52;;;;;;;;;;;;;;;8.53;44.92;95614.63;5114104;28;1102;-59
2022/12/21 12:31:30;;;;;;;;;;;;;;;8.48;46.34;95601.72;5114224;28;1030;-60
2022/12/21 12:34:14;;;;;;;;;;;;;;;8.48;46.16;95606.19;5114380;28;1035;-59
2022/12/21 12:36:46;;;;;;;;;;;;;;;8.44;46.68;95610.09;5113647;28;1191;-59
2022/12/21 12:39:26;;;;;;;;;;;;;;;8.39;46.69;95597.16;5114189;28;1063;-59
2022/12/21 12:41:55;;;;;;;;;;;;;;;8.27;46.48;95595.56;5114030;28;1039;-60
2022/12/21 12:44:30;;;;;;;;;;;;;;;8.08;47.11;95594.56;5114145;28;972;-60
2022/12/21 12:47:05;;;;;;;;;;;;;;;7.99;46.98;95596.19;5113715;28;1994;-60
2022/12/21 12:49:31;;;;;;;;;;;;;;;7.97;47.86;95594.66;5113756;28;1562;-60
2022/12/21 12:52:15;;;;;;;;;;;;;;;7.93;46.85;95591.41;5114013;28;1023;-60
2022/12/21 12:54:44;;;;;;;;;;;;;;;7.89;46.75;95597.13;5113749;28;1102;-59
2022/12/21 12:57:16;;;;;;;;;;;;;;;7.84;48.04;95594.03;5113845;28;1242;-60
2022/12/21 13:00:02;;;;;;;;;;;;;;;7.76;48.32;95592.06;5113688;28;1096;-60
2022/12/21 13:02:47;;;;;;;;;;;;;;;7.66;48.76;95593.81;5112734;28;1017;-60
2022/12/21 13:05:16;;;;;;;;;;;;;;;7.60;48.54;95593.34;5113951;28;1993;-60
2022/12/21 13:07:45;;;;;;;;;;;;;;;7.54;48.51;95590.38;5112254;28;1388;-59
2022/12/21 13:10:24;;;;;;;;;;;;;;;7.46;49.24;95590.22;5113892;28;964;-60
2022/12/21 13:12:50;;;;;;;;;;;;;;;7.34;49.16;95587.63;5113750;28;1003;-60
2022/12/21 13:15:27;;;;;;;;;;;;;;;7.30;50.41;95582.66;5112530;28;1055;-59
2022/12/21 13:17:53;;;;;;;;;;;;;;;7.33;50.41;95588.56;5113400;28;1297;-59
2022/12/21 13:20:20;;;;;;;;;;;;;;;7.37;50.88;95583.84;5113676;28;1083;-59
2022/12/21 13:23:06;;;;;;;;;;;;;;;7.26;51.73;95584.75;5113770;28;1064;-59
2022/12/21 13:25:55;;;;;;;;;;;;;;;7.23;52.19;95583.19;5113381;28;1913;-60
2022/12/21 13:28:25;;;;;;;;;;;;;;;7.16;53.34;95584.69;5113514;28;1054;-60
2022/12/21 13:30:52;;;;;;;;;;;;;;;7.03;52.46;95576.88;5112734;28;1383;-59
2022/12/21 13:33:19;;;;;;;;;;;;;;;7.14;51.93;95586.63;5113310;28;1397;-60
2022/12/21 13:35:53;;;;;;;;;;;;;;;7.13;53.11;95579.66;5113522;28;1019;-60
2022/12/21 13:38:22;;;;;;;;;;;;;;;7.07;54.23;95584.63;5113491;28;977;-60